Brangus — WDB4516 — position and weather

sailwx.info

Track history (hours):
 
Tides and Currents Weather Stations Pressure Air Temp Water Temp Dewpoint Dewpoint Depression Visibility Wind Speed Wind Dir Waves Ship Positions

Brangus

Owner: Great Lakes Dredge & Dock Company, Oak Brook, IL. More information available from US FCC via Universal Licensing System and Coast Guard Vessel Documentation Center.

Last reported at 2016-Jun-24 23:33 UTC. Time now 2016-Jun-24 23:59 UTC.
Position N 40°39' W 074°06'.

; draft 3 m.

MMSI: 366899270.

Date/timePositionNaut miles runAvg speedWind from/ knotsBaromVisibWave heightAir tempDewpointWater temp
2016-Jun-24 23:33N 40°39' W 074°06'4 3.6
2016-Jun-24 22:34N 40°36' W 074°03'  
2016-Jun-20 18:24N 40°29' W 074°06'10 0.2
2016-Jun-18 20:34N 40°38' W 074°12'0 0.0
2016-Jun-18 19:34N 40°38' W 074°12'0 0.0
2016-Jun-18 18:34N 40°38' W 074°12'0 0.0
2016-Jun-18 15:25N 40°38' W 074°12'0 0.0
2016-Jun-18 14:27N 40°38' W 074°12'0 0.0
2016-Jun-18 13:33N 40°38' W 074°12'0 0.0
2016-Jun-18 12:21N 40°38' W 074°12'0 0.0
2016-Jun-18 11:34N 40°38' W 074°12'0 0.0
2016-Jun-18 10:30N 40°38' W 074°12'0 0.0
2016-Jun-18 09:34N 40°38' W 074°12'15 0.6
2016-Jun-17 07:06N 40°27' W 074°00'0 0.0
2016-Jun-17 06:10N 40°27' W 074°00'0 0.0
2016-Jun-15 13:33N 40°27' W 074°00'0 0.0
2016-Jun-15 12:34N 40°27' W 074°00'0 0.0
2016-Jun-15 11:34N 40°27' W 074°00'0 0.0
2016-Jun-15 10:33N 40°27' W 074°00'2 2.1
2016-Jun-15 09:34N 40°25' W 074°02'2 2.0
2016-Jun-15 08:33N 40°27' W 074°00'0 0.0
2016-Jun-15 07:33N 40°27' W 074°00'2 2.0
2016-Jun-15 06:33N 40°28' W 074°02'25 4.7
2016-Jun-15 01:18N 40°04' W 074°02'4 5.3
2016-Jun-15 00:33N 39°60' W 074°03'5 5.1
2016-Jun-14 23:34N 39°55' W 074°03'  
Track history (hours):
 
Tides and Currents Weather Stations Pressure Air Temp Water Temp Dewpoint Dewpoint Depression Visibility Wind Speed Wind Dir Waves Ship Positions

Brangus

Owner: Great Lakes Dredge & Dock Company, Oak Brook, IL. More information available from US FCC via Universal Licensing System and Coast Guard Vessel Documentation Center.

Last reported at 2016-Jun-24 23:33 UTC. Time now 2016-Jun-24 23:59 UTC.
Position N 40°39' W 074°06'.

; draft 3 m.

MMSI: 366899270.

Date/timePositionNaut miles runAvg speedWind from/ knotsBaromVisibWave heightAir tempDewpointWater temp
2016-Jun-24 23:33N 40°39' W 074°06'4 3.6
2016-Jun-24 22:34N 40°36' W 074°03'  
2016-Jun-20 18:24N 40°29' W 074°06'10 0.2
2016-Jun-18 20:34N 40°38' W 074°12'0 0.0
2016-Jun-18 19:34N 40°38' W 074°12'0 0.0
2016-Jun-18 18:34N 40°38' W 074°12'0 0.0
2016-Jun-18 15:25N 40°38' W 074°12'0 0.0
2016-Jun-18 14:27N 40°38' W 074°12'0 0.0
2016-Jun-18 13:33N 40°38' W 074°12'0 0.0
2016-Jun-18 12:21N 40°38' W 074°12'0 0.0
2016-Jun-18 11:34N 40°38' W 074°12'0 0.0
2016-Jun-18 10:30N 40°38' W 074°12'0 0.0
2016-Jun-18 09:34N 40°38' W 074°12'15 0.6
2016-Jun-17 07:06N 40°27' W 074°00'0 0.0
2016-Jun-17 06:10N 40°27' W 074°00'0 0.0
2016-Jun-15 13:33N 40°27' W 074°00'0 0.0
2016-Jun-15 12:34N 40°27' W 074°00'0 0.0
2016-Jun-15 11:34N 40°27' W 074°00'0 0.0
2016-Jun-15 10:33N 40°27' W 074°00'2 2.1
2016-Jun-15 09:34N 40°25' W 074°02'2 2.0
2016-Jun-15 08:33N 40°27' W 074°00'0 0.0
2016-Jun-15 07:33N 40°27' W 074°00'2 2.0
2016-Jun-15 06:33N 40°28' W 074°02'25 4.7
2016-Jun-15 01:18N 40°04' W 074°02'4 5.3
2016-Jun-15 00:33N 39°60' W 074°03'5 5.1
2016-Jun-14 23:34N 39°55' W 074°03'  

Dump ship's entire track history